Time;durP1;ratioP1;P1;durP2;ratioP2;P2;SDS_P1;SDS_P2;PMS_P1;PMS_P2;Temp;Humidity;BMP_temperature;BMP_pressure;BME280_temperature;BME280_humidity;BME280_pressure;Samples;Min_cycle;Max_cycle;Signal;HPM_P1;HPM_P2
2022/01/10 00:01:44;;;;;;;24.98;15.18;;;;;;;;;;5051969;28;20051;-59
2022/01/10 00:04:09;;;;;;;35.28;17.05;;;;;;;;;;5052770;28;20060;-59
2022/01/10 00:06:35;;;;;;;29.30;16.23;;;;;;;;;;5057295;28;20380;-59
2022/01/10 00:09:00;;;;;;;36.88;17.58;;;;;;;;;;5050714;28;20075;-59
2022/01/10 00:11:26;;;;;;;35.17;20.17;;;;;;;;;;5057496;28;20032;-59
2022/01/10 00:13:51;;;;;;;41.80;19.38;;;;;;;;;;5070353;28;20773;-59
2022/01/10 00:16:16;;;;;;;40.83;18.58;;;;;;;;;;5071501;28;20450;-59
2022/01/10 00:18:41;;;;;;;38.95;20.90;;;;;;;;;;5069889;28;20028;-58
2022/01/10 00:21:07;;;;;;;45.00;20.70;;;;;;;;;;5072093;28;20009;-59
2022/01/10 00:23:32;;;;;;;34.13;18.90;;;;;;;;;;5060981;28;21103;-59
2022/01/10 00:25:57;;;;;;;38.55;18.70;;;;;;;;;;5049800;28;20518;-58
2022/01/10 00:28:22;;;;;;;48.63;21.15;;;;;;;;;;5052161;28;20025;-58
2022/01/10 00:30:47;;;;;;;37.67;18.37;;;;;;;;;;5070062;28;20032;-58
2022/01/10 00:33:12;;;;;;;40.78;23.20;;;;;;;;;;5053330;28;20444;-59
2022/01/10 00:35:38;;;;;;;51.90;19.13;;;;;;;;;;5049509;28;20493;-59
2022/01/10 00:38:03;;;;;;;43.07;20.30;;;;;;;;;;5051330;28;20423;-59
2022/01/10 00:40:28;;;;;;;56.33;21.27;;;;;;;;;;5063891;28;20473;-58
2022/01/10 00:42:55;;;;;;;39.00;22.02;;;;;;;;;;5071095;28;20777;-58
2022/01/10 00:45:25;;;;;;;39.22;22.10;;;;;;;;;;5069567;28;20033;-58
2022/01/10 00:47:51;;;;;;;61.20;23.77;;;;;;;;;;5071036;28;20017;-59
2022/01/10 00:50:16;;;;;;;46.08;21.63;;;;;;;;;;5069555;28;20035;-58
2022/01/10 00:52:41;;;;;;;39.60;21.80;;;;;;;;;;5067569;28;20104;-59
2022/01/10 00:55:07;;;;;;;51.25;22.58;;;;;;;;;;5051828;28;20127;-59
2022/01/10 00:57:32;;;;;;;41.53;22.25;;;;;;;;;;5067975;28;20067;-58
2022/01/10 00:59:59;;;;;;;53.73;23.60;;;;;;;;;;5049750;28;20041;-58
2022/01/10 01:02:26;;;;;;;66.63;27.20;;;;;;;;;;5051287;28;20427;-58
2022/01/10 01:04:52;;;;;;;39.78;23.27;;;;;;;;;;5050348;28;20496;-58
2022/01/10 01:07:17;;;;;;;34.88;24.38;;;;;;;;;;5071163;28;20044;-58
2022/01/10 01:09:48;;;;;;;50.33;24.83;;;;;;;;;;5068994;28;20478;-58
2022/01/10 01:12:29;;;;;;;49.05;25.33;;;;;;;;;;5070689;28;20364;-58
2022/01/10 01:14:56;;;;;;;53.88;23.73;;;;;;;;;;5068878;28;20060;-58
2022/01/10 01:17:34;;;;;;;41.28;23.95;;;;;;;;;;5070679;28;20472;-58
2022/01/10 01:25:08;;;;;;;37.53;22.02;;;;;;;;;;5068811;28;20449;-59
2022/01/10 01:27:34;;;;;;;40.42;25.00;;;;;;;;;;5070020;28;20048;-59
2022/01/10 01:29:59;;;;;;;39.03;22.83;;;;;;;;;;5069386;28;20492;-58
2022/01/10 01:32:24;;;;;;;47.17;23.10;;;;;;;;;;5065039;28;20021;-58
2022/01/10 01:34:50;;;;;;;55.00;26.67;;;;;;;;;;5048441;28;20466;-58
2022/01/10 01:37:15;;;;;;;45.88;22.83;;;;;;;;;;5061378;28;20029;-58
2022/01/10 01:39:40;;;;;;;50.88;29.05;;;;;;;;;;5054313;28;20510;-59
2022/01/10 01:42:28;;;;;;;50.72;25.38;;;;;;;;;;5050185;28;20595;-58
2022/01/10 01:44:51;;;;;;;43.15;23.00;;;;;;;;;;5048735;28;20037;-58
2022/01/10 01:47:16;;;;;;;43.43;24.53;;;;;;;;;;5065228;28;20025;-58
2022/01/10 01:49:41;;;;;;;50.90;23.83;;;;;;;;;;5066729;28;21018;-59
2022/01/10 01:52:06;;;;;;;53.35;22.80;;;;;;;;;;5070040;28;20497;-59
2022/01/10 01:54:31;;;;;;;50.77;25.67;;;;;;;;;;5068902;28;20032;-59
2022/01/10 01:56:58;;;;;;;47.17;22.98;;;;;;;;;;5050786;28;20025;-58
2022/01/10 01:59:23;;;;;;;56.35;25.92;;;;;;;;;;5050137;28;20128;-59
2022/01/10 02:01:48;;;;;;;39.60;22.77;;;;;;;;;;5054255;28;20612;-59
2022/01/10 02:04:13;;;;;;;37.43;25.93;;;;;;;;;;5064473;28;20470;-60
2022/01/10 02:06:39;;;;;;;49.67;24.00;;;;;;;;;;5054205;28;20416;-59
2022/01/10 02:09:04;;;;;;;51.57;27.27;;;;;;;;;;5053072;28;20094;-60
2022/01/10 02:11:29;;;;;;;54.13;28.02;;;;;;;;;;5069767;28;20446;-59
2022/01/10 02:13:54;;;;;;;56.17;27.67;;;;;;;;;;5071749;28;20028;-59
2022/01/10 02:16:31;;;;;;;60.03;27.03;;;;;;;;;;5062671;28;20450;-59
2022/01/10 02:18:57;;;;;;;52.13;29.85;;;;;;;;;;5054622;28;20466;-60
2022/01/10 02:21:23;;;;;;;65.55;31.58;;;;;;;;;;5069169;28;20495;-59
2022/01/10 02:23:48;;;;;;;57.97;30.42;;;;;;;;;;5052577;28;20083;-59
2022/01/10 02:26:13;;;;;;;54.53;30.42;;;;;;;;;;5053365;28;20439;-59
2022/01/10 02:28:40;;;;;;;49.25;27.92;;;;;;;;;;5052340;28;20109;-60
2022/01/10 02:31:06;;;;;;;52.90;33.92;;;;;;;;;;5054029;28;20388;-60
2022/01/10 02:33:32;;;;;;;63.78;31.88;;;;;;;;;;5053325;28;20021;-60
2022/01/10 02:36:07;;;;;;;57.60;32.60;;;;;;;;;;5052383;28;20506;-60
2022/01/10 02:38:33;;;;;;;76.88;35.83;;;;;;;;;;5061705;28;20035;-60
2022/01/10 02:40:59;;;;;;;55.72;30.50;;;;;;;;;;5064851;28;20040;-60
2022/01/10 02:43:24;;;;;;;59.85;32.90;;;;;;;;;;5054026;28;20419;-60
2022/01/10 02:45:49;;;;;;;90.30;32.03;;;;;;;;;;5051907;28;20475;-59
2022/01/10 02:48:14;;;;;;;54.53;31.07;;;;;;;;;;5052990;28;20447;-59
2022/01/10 02:50:39;;;;;;;79.55;34.20;;;;;;;;;;5068089;28;20459;-59
2022/01/10 02:53:04;;;;;;;70.70;37.60;;;;;;;;;;5067005;28;20020;-60
2022/01/10 02:55:30;;;;;;;80.40;39.50;;;;;;;;;;5051385;28;20037;-60
2022/01/10 02:57:55;;;;;;;69.38;35.30;;;;;;;;;;5066490;28;20067;-60
2022/01/10 03:00:22;;;;;;;66.15;35.03;;;;;;;;;;5070127;28;20037;-60
2022/01/10 03:02:50;;;;;;;71.32;39.35;;;;;;;;;;5072649;28;20050;-60
2022/01/10 03:05:16;;;;;;;67.97;31.13;;;;;;;;;;5063370;28;20048;-59
2022/01/10 03:07:41;;;;;;;186.20;46.58;;;;;;;;;;5067063;28;20020;-59
2022/01/10 03:10:07;;;;;;;342.70;58.28;;;;;;;;;;5071390;28;20039;-59
2022/01/10 03:12:32;;;;;;;490.33;72.43;;;;;;;;;;5072779;28;20020;-60
2022/01/10 03:14:58;;;;;;;700.10;100.68;;;;;;;;;;5071257;28;20054;-59
2022/01/10 03:17:23;;;;;;;164.40;39.40;;;;;;;;;;5052951;28;20167;-59
2022/01/10 03:19:48;;;;;;;226.45;48.13;;;;;;;;;;5060188;28;20032;-60
2022/01/10 03:22:13;;;;;;;152.07;36.67;;;;;;;;;;5072578;28;20029;-59
2022/01/10 03:24:39;;;;;;;77.27;36.13;;;;;;;;;;5067732;28;20470;-59
2022/01/10 03:27:05;;;;;;;157.32;42.83;;;;;;;;;;5052675;28;20470;-59
2022/01/10 03:29:30;;;;;;;214.25;52.92;;;;;;;;;;5051426;28;20033;-60
2022/01/10 03:31:55;;;;;;;191.20;52.30;;;;;;;;;;5052348;28;20064;-59
2022/01/10 03:34:20;;;;;;;367.27;60.17;;;;;;;;;;5068420;28;20435;-58
2022/01/10 03:36:45;;;;;;;73.50;42.03;;;;;;;;;;5063385;28;20025;-58
2022/01/10 03:39:12;;;;;;;80.82;42.83;;;;;;;;;;5050971;28;20451;-58
2022/01/10 03:41:37;;;;;;;97.28;47.90;;;;;;;;;;5052507;28;20075;-59
2022/01/10 03:44:03;;;;;;;265.13;64.82;;;;;;;;;;5051407;28;20033;-59
2022/01/10 03:46:31;;;;;;;87.35;42.42;;;;;;;;;;5064166;28;20015;-59
2022/01/10 03:48:56;;;;;;;87.80;49.15;;;;;;;;;;5069402;28;20506;-59
2022/01/10 03:51:21;;;;;;;93.50;46.53;;;;;;;;;;5052487;28;20096;-59
2022/01/10 03:53:46;;;;;;;121.45;52.60;;;;;;;;;;5050422;28;20415;-59
2022/01/10 03:56:12;;;;;;;102.97;47.75;;;;;;;;;;5052290;28;20074;-59
2022/01/10 03:58:37;;;;;;;110.72;53.67;;;;;;;;;;5065874;28;20375;-60
2022/01/10 04:01:03;;;;;;;334.58;69.63;;;;;;;;;;5070502;28;20094;-60
2022/01/10 04:03:28;;;;;;;86.50;47.67;;;;;;;;;;5072531;28;20383;-60
2022/01/10 04:05:54;;;;;;;80.23;42.63;;;;;;;;;;5056090;28;20047;-60
2022/01/10 04:08:19;;;;;;;133.13;54.70;;;;;;;;;;5052001;28;20471;-60
2022/01/10 04:10:44;;;;;;;113.22;50.55;;;;;;;;;;5050563;28;20536;-60
2022/01/10 04:13:09;;;;;;;86.72;51.08;;;;;;;;;;5070573;28;20024;-60
2022/01/10 04:15:34;;;;;;;384.15;69.63;;;;;;;;;;5069937;28;20458;-60
2022/01/10 04:18:02;;;;;;;203.53;54.47;;;;;;;;;;5072094;28;20035;-60
2022/01/10 04:20:27;;;;;;;102.57;50.72;;;;;;;;;;5060676;28;20466;-60
2022/01/10 04:22:52;;;;;;;100.63;50.17;;;;;;;;;;5070360;28;20024;-60
2022/01/10 04:25:17;;;;;;;80.25;47.28;;;;;;;;;;5066666;28;20037;-60
2022/01/10 04:27:43;;;;;;;97.50;53.03;;;;;;;;;;5052290;28;20544;-60
2022/01/10 04:30:08;;;;;;;94.82;51.67;;;;;;;;;;5050320;28;20040;-60
2022/01/10 04:32:34;;;;;;;83.30;46.88;;;;;;;;;;5051205;28;20055;-60
2022/01/10 04:34:59;;;;;;;83.80;48.38;;;;;;;;;;5057161;28;20442;-60
2022/01/10 04:37:24;;;;;;;143.07;55.97;;;;;;;;;;5071916;28;20190;-60
2022/01/10 04:39:49;;;;;;;269.67;64.30;;;;;;;;;;5069663;28;20044;-60
2022/01/10 04:42:15;;;;;;;160.90;50.73;;;;;;;;;;5070686;28;20206;-60
2022/01/10 04:44:41;;;;;;;117.72;53.85;;;;;;;;;;5069768;28;20474;-59
2022/01/10 04:47:06;;;;;;;189.52;56.00;;;;;;;;;;5071165;28;20113;-58
2022/01/10 04:49:45;;;;;;;164.70;58.47;;;;;;;;;;5063497;28;20072;-58
2022/01/10 04:52:10;;;;;;;625.22;118.10;;;;;;;;;;5061969;28;20143;-58
2022/01/10 04:54:35;;;;;;;292.63;65.70;;;;;;;;;;5065794;28;20222;-58
2022/01/10 04:57:00;;;;;;;196.65;61.60;;;;;;;;;;5051137;28;20028;-58
2022/01/10 04:59:26;;;;;;;634.72;129.18;;;;;;;;;;5050002;28;20612;-58
2022/01/10 05:01:51;;;;;;;174.45;58.08;;;;;;;;;;5050774;28;20035;-58
2022/01/10 05:04:16;;;;;;;105.03;52.90;;;;;;;;;;5053790;28;20387;-58
2022/01/10 05:06:42;;;;;;;91.47;54.05;;;;;;;;;;5051052;28;20461;-58
2022/01/10 05:09:08;;;;;;;114.38;60.60;;;;;;;;;;5049538;28;20102;-58
2022/01/10 05:11:35;;;;;;;120.10;56.33;;;;;;;;;;5051541;28;20103;-59
2022/01/10 05:14:00;;;;;;;108.18;57.13;;;;;;;;;;5056136;28;20036;-57
2022/01/10 05:16:26;;;;;;;86.67;54.73;;;;;;;;;;5069767;28;20383;-58
2022/01/10 05:18:51;;;;;;;128.97;62.33;;;;;;;;;;5068889;28;20531;-57
2022/01/10 05:21:17;;;;;;;102.63;60.78;;;;;;;;;;5062768;28;20454;-58
2022/01/10 05:23:42;;;;;;;147.07;68.82;;;;;;;;;;5052574;28;20433;-58
2022/01/10 05:26:07;;;;;;;127.00;69.77;;;;;;;;;;5069822;28;20051;-57
2022/01/10 05:28:33;;;;;;;85.03;52.22;;;;;;;;;;5066580;28;20528;-58
2022/01/10 05:31:00;;;;;;;149.63;61.53;;;;;;;;;;5062113;28;20098;-58
2022/01/10 05:33:25;;;;;;;147.75;56.28;;;;;;;;;;5069458;28;20441;-58
2022/01/10 05:35:51;;;;;;;124.53;54.47;;;;;;;;;;5068707;28;20492;-58
2022/01/10 05:38:16;;;;;;;609.13;108.33;;;;;;;;;;5067540;28;20028;-58
2022/01/10 05:40:41;;;;;;;235.27;69.47;;;;;;;;;;5049846;28;20533;-58
2022/01/10 05:43:06;;;;;;;173.70;67.28;;;;;;;;;;5058628;28;20033;-58
2022/01/10 05:45:32;;;;;;;152.38;67.38;;;;;;;;;;5063794;28;20400;-58
2022/01/10 05:47:59;;;;;;;157.60;65.35;;;;;;;;;;5069781;28;20464;-58
2022/01/10 05:50:33;;;;;;;246.80;76.00;;;;;;;;;;5068699;28;20033;-58
2022/01/10 05:52:59;;;;;;;272.00;79.80;;;;;;;;;;5070124;28;20514;-56
2022/01/10 05:55:25;;;;;;;349.65;86.18;;;;;;;;;;5068886;28;20115;-56
2022/01/10 05:57:50;;;;;;;494.00;105.25;;;;;;;;;;5070167;28;20028;-56
2022/01/10 06:00:15;;;;;;;441.13;90.50;;;;;;;;;;5068707;28;20032;-56
2022/01/10 06:02:40;;;;;;;517.13;105.53;;;;;;;;;;5070334;28;20483;-56
2022/01/10 06:05:09;;;;;;;303.92;77.30;;;;;;;;;;5068949;28;20458;-56
2022/01/10 06:07:34;;;;;;;313.98;76.53;;;;;;;;;;5069597;28;20408;-56
2022/01/10 06:09:59;;;;;;;324.00;74.88;;;;;;;;;;5068864;28;20043;-56
2022/01/10 06:12:25;;;;;;;280.15;69.20;;;;;;;;;;5070348;28;20009;-56
2022/01/10 06:14:50;;;;;;;215.10;66.30;;;;;;;;;;5068251;28;20039;-56
2022/01/10 06:17:15;;;;;;;243.20;67.32;;;;;;;;;;5070440;28;20130;-56
2022/01/10 06:19:40;;;;;;;193.82;64.03;;;;;;;;;;5068664;28;20121;-56
2022/01/10 06:22:05;;;;;;;188.93;59.28;;;;;;;;;;5069833;28;20039;-56
2022/01/10 06:24:30;;;;;;;188.03;65.03;;;;;;;;;;5068519;28;20058;-56
2022/01/10 06:26:55;;;;;;;192.73;57.33;;;;;;;;;;5051377;28;20499;-56
2022/01/10 06:29:21;;;;;;;162.02;61.50;;;;;;;;;;5048285;28;20482;-56
2022/01/10 06:31:46;;;;;;;150.02;55.83;;;;;;;;;;5049912;28;20036;-56
2022/01/10 06:34:11;;;;;;;163.45;61.17;;;;;;;;;;5048637;28;20091;-56
2022/01/10 06:36:36;;;;;;;200.13;64.15;;;;;;;;;;5046355;28;20059;-56
2022/01/10 06:39:02;;;;;;;158.03;59.30;;;;;;;;;;5044402;28;20128;-56
2022/01/10 06:41:27;;;;;;;201.02;66.75;;;;;;;;;;5049509;28;20506;-56
2022/01/10 06:43:52;;;;;;;213.07;71.97;;;;;;;;;;5047212;28;20372;-56
2022/01/10 06:46:17;;;;;;;158.73;65.47;;;;;;;;;;5051768;28;20024;-56
2022/01/10 06:48:42;;;;;;;186.50;63.67;;;;;;;;;;5052187;28;20048;-56
2022/01/10 06:51:07;;;;;;;204.73;64.03;;;;;;;;;;5052493;28;20029;-56
2022/01/10 06:53:32;;;;;;;266.47;67.63;;;;;;;;;;5052741;28;20024;-56
2022/01/10 06:55:58;;;;;;;183.95;63.13;;;;;;;;;;5051678;28;21002;-56
2022/01/10 06:58:23;;;;;;;181.50;63.27;;;;;;;;;;5052625;28;20235;-56
2022/01/10 07:00:48;;;;;;;120.38;56.90;;;;;;;;;;5051422;28;20447;-57
2022/01/10 07:03:13;;;;;;;210.93;65.20;;;;;;;;;;5053079;28;20048;-56
2022/01/10 07:05:38;;;;;;;161.20;62.67;;;;;;;;;;5051059;28;20451;-56
2022/01/10 07:08:03;;;;;;;155.30;52.67;;;;;;;;;;5053298;28;20497;-56
2022/01/10 07:10:29;;;;;;;203.65;61.40;;;;;;;;;;5051831;28;20045;-56
2022/01/10 07:12:54;;;;;;;187.57;60.83;;;;;;;;;;5052632;28;20377;-56
2022/01/10 07:15:20;;;;;;;172.63;62.75;;;;;;;;;;5051507;28;20542;-56
2022/01/10 07:17:45;;;;;;;140.48;58.58;;;;;;;;;;5052833;28;20526;-56
2022/01/10 07:20:10;;;;;;;207.90;62.58;;;;;;;;;;5051748;28;20037;-56
2022/01/10 07:22:36;;;;;;;194.63;67.65;;;;;;;;;;5052002;28;20391;-56
2022/01/10 07:25:01;;;;;;;176.85;63.15;;;;;;;;;;5051405;28;20472;-56
2022/01/10 07:27:26;;;;;;;204.83;65.73;;;;;;;;;;5052729;28;20041;-56
2022/01/10 07:29:51;;;;;;;223.23;66.85;;;;;;;;;;5051031;28;20447;-56
2022/01/10 07:32:17;;;;;;;221.23;63.40;;;;;;;;;;5052347;28;20388;-56
2022/01/10 07:34:43;;;;;;;198.88;66.65;;;;;;;;;;5050516;28;20040;-56
2022/01/10 07:37:08;;;;;;;186.38;60.65;;;;;;;;;;5052098;28;20024;-56
2022/01/10 07:39:33;;;;;;;255.70;63.10;;;;;;;;;;5050581;28;20025;-56
2022/01/10 07:41:58;;;;;;;218.18;62.90;;;;;;;;;;5052667;28;20437;-56
2022/01/10 07:44:23;;;;;;;194.40;60.72;;;;;;;;;;5050847;28;20151;-56
2022/01/10 07:46:48;;;;;;;178.70;63.58;;;;;;;;;;5052435;28;20478;-56
2022/01/10 07:49:14;;;;;;;206.75;60.63;;;;;;;;;;5051134;28;20041;-56
2022/01/10 07:51:39;;;;;;;192.43;66.00;;;;;;;;;;5051893;28;20017;-56
2022/01/10 07:54:05;;;;;;;245.75;65.55;;;;;;;;;;5050986;28;21047;-56
2022/01/10 07:56:30;;;;;;;264.27;65.50;;;;;;;;;;5051772;28;20025;-56
2022/01/10 07:58:56;;;;;;;223.90;65.07;;;;;;;;;;5050427;28;20802;-56
2022/01/10 08:01:22;;;;;;;278.95;70.90;;;;;;;;;;5052646;28;20028;-56
2022/01/10 08:03:50;;;;;;;238.18;70.32;;;;;;;;;;5050675;28;20082;-56
2022/01/10 08:06:15;;;;;;;142.18;62.22;;;;;;;;;;5051923;28;20020;-56
2022/01/10 08:08:40;;;;;;;210.70;61.65;;;;;;;;;;5050508;28;20100;-56
2022/01/10 08:11:06;;;;;;;214.60;64.38;;;;;;;;;;5052515;28;20376;-56
2022/01/10 08:13:31;;;;;;;229.57;65.18;;;;;;;;;;5051660;28;20058;-56
2022/01/10 08:15:56;;;;;;;246.85;65.43;;;;;;;;;;5050604;28;20025;-56
2022/01/10 08:18:21;;;;;;;188.03;61.13;;;;;;;;;;5052173;28;20017;-56
2022/01/10 08:20:46;;;;;;;204.60;59.67;;;;;;;;;;5049952;28;20815;-56
2022/01/10 08:23:12;;;;;;;221.85;61.03;;;;;;;;;;5051969;28;20426;-55
2022/01/10 08:25:37;;;;;;;159.70;59.60;;;;;;;;;;5049944;28;20123;-55
2022/01/10 08:28:03;;;;;;;193.33;58.80;;;;;;;;;;5051668;28;20096;-56
2022/01/10 08:30:28;;;;;;;168.98;57.38;;;;;;;;;;5050425;28;20478;-56
2022/01/10 08:32:53;;;;;;;149.27;54.42;;;;;;;;;;5051466;28;20024;-56
2022/01/10 08:35:18;;;;;;;151.65;57.33;;;;;;;;;;5049762;28;20087;-56
2022/01/10 08:37:44;;;;;;;155.73;53.22;;;;;;;;;;5051461;28;20388;-56
2022/01/10 08:40:11;;;;;;;131.38;55.17;;;;;;;;;;5050353;28;20139;-56
2022/01/10 08:42:36;;;;;;;116.25;51.75;;;;;;;;;;5051302;28;20029;-56
2022/01/10 08:45:01;;;;;;;124.30;53.15;;;;;;;;;;5050066;28;20041;-56
2022/01/10 08:47:27;;;;;;;85.23;53.43;;;;;;;;;;5051446;28;20032;-56
2022/01/10 08:49:53;;;;;;;127.82;52.85;;;;;;;;;;5049299;28;20583;-56
2022/01/10 08:52:18;;;;;;;157.20;55.30;;;;;;;;;;5051164;28;20017;-56
2022/01/10 08:54:43;;;;;;;140.77;56.13;;;;;;;;;;5049790;28;20037;-56
2022/01/10 08:57:08;;;;;;;172.85;56.47;;;;;;;;;;5051044;28;20442;-56
2022/01/10 08:59:33;;;;;;;126.35;54.70;;;;;;;;;;5049633;28;20029;-55
2022/01/10 09:01:59;;;;;;;149.10;54.57;;;;;;;;;;5051192;28;20052;-56
2022/01/10 09:04:24;;;;;;;162.27;57.28;;;;;;;;;;5049454;28;20528;-55
2022/01/10 09:06:50;;;;;;;134.30;56.00;;;;;;;;;;5050779;28;20021;-56
2022/01/10 09:09:15;;;;;;;170.95;55.60;;;;;;;;;;5049600;28;20138;-56
2022/01/10 09:11:41;;;;;;;117.50;54.78;;;;;;;;;;5050332;28;20098;-56
2022/01/10 09:14:06;;;;;;;143.38;56.45;;;;;;;;;;5046499;28;20045;-56
2022/01/10 09:16:32;;;;;;;203.37;54.57;;;;;;;;;;5040337;28;20106;-56
2022/01/10 09:18:57;;;;;;;135.57;57.13;;;;;;;;;;5048865;28;20443;-56
2022/01/10 09:21:23;;;;;;;154.65;54.97;;;;;;;;;;5049266;28;20013;-56
2022/01/10 09:23:48;;;;;;;147.68;54.47;;;;;;;;;;5048947;28;20043;-55
2022/01/10 09:26:13;;;;;;;120.13;51.15;;;;;;;;;;5050045;28;20069;-56
2022/01/10 09:28:38;;;;;;;168.67;51.97;;;;;;;;;;5048748;28;20063;-56
2022/01/10 09:31:04;;;;;;;105.25;48.92;;;;;;;;;;5050792;28;20418;-56
2022/01/10 09:33:29;;;;;;;123.88;51.72;;;;;;;;;;5050634;28;20009;-56
2022/01/10 09:35:54;;;;;;;173.13;52.13;;;;;;;;;;5048306;28;20503;-55
2022/01/10 09:38:19;;;;;;;174.20;55.47;;;;;;;;;;5050733;28;20016;-56
2022/01/10 09:40:44;;;;;;;132.33;52.53;;;;;;;;;;5048761;28;20822;-55
2022/01/10 09:43:10;;;;;;;125.78;53.83;;;;;;;;;;5050187;28;20435;-56
2022/01/10 09:45:36;;;;;;;131.33;54.90;;;;;;;;;;5048684;28;20064;-56
2022/01/10 09:48:01;;;;;;;129.73;55.25;;;;;;;;;;5050152;28;20531;-56
2022/01/10 09:50:26;;;;;;;134.57;57.33;;;;;;;;;;5048603;28;20108;-56
2022/01/10 09:52:52;;;;;;;92.32;48.53;;;;;;;;;;5050103;28;20464;-56
2022/01/10 09:55:17;;;;;;;149.82;54.45;;;;;;;;;;5048819;28;20033;-56
2022/01/10 09:57:42;;;;;;;165.32;54.80;;;;;;;;;;5049797;28;20021;-56
2022/01/10 10:00:09;;;;;;;134.25;51.78;;;;;;;;;;5049008;28;20155;-56
2022/01/10 10:02:35;;;;;;;142.80;58.28;;;;;;;;;;5050109;28;20479;-56
2022/01/10 10:05:01;;;;;;;145.75;56.28;;;;;;;;;;5048638;28;20033;-56
2022/01/10 10:07:26;;;;;;;142.93;57.55;;;;;;;;;;5050546;28;20029;-56
2022/01/10 10:09:51;;;;;;;146.50;55.95;;;;;;;;;;5048596;28;20040;-56
2022/01/10 10:12:16;;;;;;;136.15;50.78;;;;;;;;;;5049925;28;20043;-56
2022/01/10 10:14:44;;;;;;;134.15;49.80;;;;;;;;;;5048678;28;20029;-56
2022/01/10 10:17:14;;;;;;;134.13;49.70;;;;;;;;;;5050243;28;20553;-56
2022/01/10 10:19:40;;;;;;;116.88;50.40;;;;;;;;;;5048479;28;20117;-56
2022/01/10 10:22:05;;;;;;;124.05;48.83;;;;;;;;;;5052644;28;20044;-56
2022/01/10 10:24:30;;;;;;;110.88;50.40;;;;;;;;;;5049615;28;20455;-56
2022/01/10 10:26:56;;;;;;;97.88;47.38;;;;;;;;;;5053052;28;20110;-56
2022/01/10 10:29:22;;;;;;;97.03;49.90;;;;;;;;;;5052617;28;20496;-56
2022/01/10 10:31:51;;;;;;;88.40;51.10;;;;;;;;;;5053894;28;20031;-56
2022/01/10 10:34:21;;;;;;;140.13;52.70;;;;;;;;;;5052000;28;20818;-56
2022/01/10 10:36:46;;;;;;;148.63;56.50;;;;;;;;;;5054064;28;20031;-56
2022/01/10 10:39:12;;;;;;;141.18;65.03;;;;;;;;;;5052517;28;20120;-56
2022/01/10 10:41:38;;;;;;;172.10;58.53;;;;;;;;;;5053182;28;20032;-56
2022/01/10 10:44:03;;;;;;;117.88;50.83;;;;;;;;;;5052673;28;20033;-57
2022/01/10 10:46:29;;;;;;;119.43;53.22;;;;;;;;;;5054010;28;20382;-56
2022/01/10 10:49:04;;;;;;;157.27;54.92;;;;;;;;;;5051905;28;20017;-56
2022/01/10 10:51:31;;;;;;;175.70;64.85;;;;;;;;;;5053961;28;20534;-57
2022/01/10 10:54:00;;;;;;;112.03;48.15;;;;;;;;;;5052167;28;20270;-56
2022/01/10 10:56:30;;;;;;;97.70;46.13;;;;;;;;;;5053359;28;20043;-56
2022/01/10 10:58:56;;;;;;;158.40;50.05;;;;;;;;;;5051868;28;20044;-56
2022/01/10 11:01:21;;;;;;;154.77;52.07;;;;;;;;;;5051961;28;20378;-56
2022/01/10 11:03:46;;;;;;;136.87;54.57;;;;;;;;;;5047750;28;20459;-56
2022/01/10 11:06:11;;;;;;;189.00;55.67;;;;;;;;;;5053173;28;20428;-56
2022/01/10 11:08:39;;;;;;;233.25;63.60;;;;;;;;;;5051219;28;20550;-56
2022/01/10 11:11:04;;;;;;;171.55;61.95;;;;;;;;;;5067652;28;20472;-56
2022/01/10 11:13:30;;;;;;;173.45;55.25;;;;;;;;;;5050783;28;20024;-56
2022/01/10 11:15:56;;;;;;;216.45;63.83;;;;;;;;;;5047142;28;20048;-57
2022/01/10 11:18:22;;;;;;;131.45;52.55;;;;;;;;;;5053746;28;20036;-56
2022/01/10 11:20:49;;;;;;;116.95;53.67;;;;;;;;;;5052557;28;20033;-56
2022/01/10 11:23:14;;;;;;;141.75;55.47;;;;;;;;;;5053336;28;20025;-56
2022/01/10 11:25:40;;;;;;;134.23;59.17;;;;;;;;;;5050829;28;20116;-56
2022/01/10 11:28:08;;;;;;;138.80;55.75;;;;;;;;;;5060605;28;20029;-56
2022/01/10 11:30:36;;;;;;;193.63;60.90;;;;;;;;;;5062503;28;20127;-56
2022/01/10 11:33:26;;;;;;;224.27;58.58;;;;;;;;;;5066254;28;20124;-57
2022/01/10 11:35:53;;;;;;;135.38;56.50;;;;;;;;;;5049668;28;20061;-56
2022/01/10 11:38:30;;;;;;;292.92;61.50;;;;;;;;;;5048345;28;20024;-56
2022/01/10 11:40:55;;;;;;;224.80;64.38;;;;;;;;;;5049382;28;20045;-56
2022/01/10 11:43:36;;;;;;;181.97;62.00;;;;;;;;;;5061152;28;20087;-56
2022/01/10 11:46:15;;;;;;;204.65;56.90;;;;;;;;;;5051462;28;20535;-56
2022/01/10 11:48:44;;;;;;;203.65;54.22;;;;;;;;;;5050704;28;20391;-57
2022/01/10 11:51:17;;;;;;;162.20;57.97;;;;;;;;;;5052700;28;20067;-56
2022/01/10 11:53:44;;;;;;;172.65;59.53;;;;;;;;;;5050975;28;20013;-56
2022/01/10 11:56:23;;;;;;;299.02;63.53;;;;;;;;;;5052408;28;20021;-56
2022/01/10 11:58:48;;;;;;;;;;;;;;;;;;5051650;28;20108;-56
2022/01/10 12:01:13;;;;;;;220.40;64.40;;;;;;;;;;5052614;28;20003;-56
2022/01/10 12:03:39;;;;;;;166.13;53.20;;;;;;;;;;5050424;28;20522;-56
2022/01/10 12:06:04;;;;;;;263.70;59.63;;;;;;;;;;5052279;28;20031;-56
2022/01/10 12:08:29;;;;;;;254.85;58.05;;;;;;;;;;5052369;28;20024;-56
2022/01/10 12:10:55;;;;;;;250.97;58.83;;;;;;;;;;5050197;28;20368;-56
2022/01/10 12:13:26;;;;;;;257.33;57.20;;;;;;;;;;5052231;28;20510;-56
2022/01/10 12:15:55;;;;;;;221.45;59.42;;;;;;;;;;5050658;28;20048;-56
2022/01/10 12:18:20;;;;;;;178.77;56.03;;;;;;;;;;5051744;28;20021;-56
2022/01/10 12:20:51;;;;;;;163.73;54.70;;;;;;;;;;5050302;28;20044;-56
2022/01/10 12:23:16;;;;;;;172.00;51.88;;;;;;;;;;5052051;28;20033;-56
2022/01/10 12:25:41;;;;;;;194.90;55.83;;;;;;;;;;5049749;28;20041;-56
2022/01/10 12:28:07;;;;;;;245.68;58.78;;;;;;;;;;5051878;28;20021;-56
2022/01/10 12:30:34;;;;;;;225.63;58.78;;;;;;;;;;5050303;28;20117;-56
2022/01/10 12:33:03;;;;;;;140.32;51.67;;;;;;;;;;5051291;28;20017;-57
2022/01/10 12:35:28;;;;;;;199.90;57.03;;;;;;;;;;5050348;28;20036;-57
2022/01/10 12:37:54;;;;;;;208.50;58.05;;;;;;;;;;5051451;28;20021;-56
2022/01/10 12:40:21;;;;;;;132.80;54.88;;;;;;;;;;5049952;28;20037;-57
2022/01/10 12:42:48;;;;;;;207.60;60.55;;;;;;;;;;5047294;28;20095;-56
2022/01/10 12:45:13;;;;;;;184.43;54.60;;;;;;;;;;5049684;28;20062;-57
2022/01/10 12:47:42;;;;;;;207.90;55.10;;;;;;;;;;5050784;28;20100;-56
2022/01/10 12:50:08;;;;;;;162.00;52.90;;;;;;;;;;5049890;28;20458;-57
2022/01/10 12:52:33;;;;;;;282.90;58.10;;;;;;;;;;5050979;28;20470;-57
2022/01/10 12:54:58;;;;;;;151.90;53.47;;;;;;;;;;5049396;28;20040;-57
2022/01/10 12:57:24;;;;;;;244.20;55.75;;;;;;;;;;5050964;28;20018;-56
2022/01/10 12:59:49;;;;;;;225.98;56.33;;;;;;;;;;5049679;28;20136;-57
2022/01/10 13:02:14;;;;;;;210.05;60.40;;;;;;;;;;5047487;28;20372;-57
2022/01/10 13:04:40;;;;;;;180.00;55.70;;;;;;;;;;5049164;28;20036;-56
2022/01/10 13:07:15;;;;;;;181.23;57.33;;;;;;;;;;5051061;28;20459;-57
2022/01/10 13:09:41;;;;;;;219.20;61.78;;;;;;;;;;5048981;28;20151;-57
2022/01/10 13:12:25;;;;;;;179.02;58.45;;;;;;;;;;5051108;28;20020;-57
2022/01/10 13:14:50;;;;;;;173.18;54.33;;;;;;;;;;5049292;28;20128;-56
2022/01/10 13:17:20;;;;;;;269.80;60.72;;;;;;;;;;5050610;28;20092;-57
2022/01/10 13:19:45;;;;;;;219.93;62.50;;;;;;;;;;5049148;28;20032;-57
2022/01/10 13:22:12;;;;;;;189.63;63.03;;;;;;;;;;5050953;28;20013;-57
2022/01/10 13:24:45;;;;;;;169.98;57.45;;;;;;;;;;5048735;28;20029;-56
2022/01/10 13:27:13;;;;;;;159.15;60.47;;;;;;;;;;5028990;28;20564;-56
2022/01/10 13:29:46;;;;;;;252.82;63.38;;;;;;;;;;5028115;28;20026;-57
2022/01/10 13:32:15;;;;;;;300.90;66.00;;;;;;;;;;5030505;28;20488;-56
2022/01/10 13:34:40;;;;;;;263.77;60.67;;;;;;;;;;5028935;28;20084;-57
2022/01/10 13:37:05;;;;;;;263.30;70.32;;;;;;;;;;5030763;28;20145;-56
2022/01/10 13:39:30;;;;;;;369.20;62.50;;;;;;;;;;5028827;28;20026;-56
2022/01/10 13:41:59;;;;;;;342.43;60.20;;;;;;;;;;5030920;28;20026;-56
2022/01/10 13:44:24;;;;;;;297.00;62.92;;;;;;;;;;5029381;28;20595;-56
2022/01/10 13:47:00;;;;;;;210.57;52.28;;;;;;;;;;5030308;28;20440;-57
2022/01/10 13:49:26;;;;;;;276.02;60.30;;;;;;;;;;5031613;28;20053;-56
2022/01/10 13:52:06;;;;;;;323.50;59.42;;;;;;;;;;5049175;28;20028;-56
2022/01/10 13:54:31;;;;;;;311.77;61.25;;;;;;;;;;5047700;28;20029;-57
2022/01/10 13:56:57;;;;;;;221.27;59.37;;;;;;;;;;5050173;28;20372;-57
2022/01/10 13:59:22;;;;;;;223.00;61.97;;;;;;;;;;5049152;28;20037;-57
2022/01/10 14:01:54;;;;;;;234.85;59.28;;;;;;;;;;5049768;28;20110;-56
2022/01/10 14:04:24;;;;;;;339.73;65.50;;;;;;;;;;5048554;28;20033;-56
2022/01/10 14:06:49;;;;;;;226.18;57.05;;;;;;;;;;5050361;28;20039;-57
2022/01/10 14:09:15;;;;;;;357.00;71.80;;;;;;;;;;5048209;28;20041;-56